createdAt,value
2023-04-14T00:01:14.429Z,1.42
2023-04-14T00:04:22.160Z,1.63
2023-04-14T00:07:06.289Z,1.30
2023-04-14T00:09:43.285Z,1.50
2023-04-14T00:12:35.310Z,1.35
2023-04-14T00:18:06.666Z,1.60
2023-04-14T00:26:47.514Z,1.50
2023-04-14T00:29:40.595Z,1.52
2023-04-14T00:32:18.746Z,1.85
2023-04-14T00:41:18.442Z,1.45
2023-04-14T00:44:05.254Z,1.27
2023-04-14T00:46:54.501Z,1.25
2023-04-14T00:52:34.540Z,1.10
2023-04-14T01:04:07.754Z,1.30
2023-04-14T01:06:55.162Z,1.13
2023-04-14T01:09:38.555Z,1.20
2023-04-14T01:12:29.292Z,1.17
2023-04-14T01:18:25.853Z,1.65
2023-04-14T01:21:25.092Z,1.40
2023-04-14T01:24:41.427Z,1.70
2023-04-14T01:27:37.675Z,1.30
2023-04-14T01:33:14.068Z,1.30
2023-04-14T01:36:13.719Z,1.38
2023-04-14T01:39:25.372Z,2.05
2023-04-14T01:42:04.228Z,1.75
2023-04-14T01:48:04.536Z,1.60
2023-04-14T01:50:53.997Z,1.90
2023-04-14T01:53:36.025Z,1.70
2023-04-14T01:56:25.226Z,1.50
2023-04-14T02:02:07.397Z,1.88
2023-04-14T02:14:15.729Z,1.80
2023-04-14T02:16:59.168Z,1.30
2023-04-14T02:19:52.878Z,1.50
2023-04-14T02:25:30.429Z,1.60
2023-04-14T02:28:05.340Z,1.55
2023-04-14T02:30:47.585Z,1.55
2023-04-14T02:33:22.590Z,1.45
2023-04-14T02:36:13.454Z,1.55
2023-04-14T02:41:41.314Z,1.20
2023-04-14T02:45:00.950Z,1.40
2023-04-14T02:47:41.524Z,1.13
2023-04-14T02:50:22.589Z,1.50
2023-04-14T02:53:07.675Z,1.40
2023-04-14T02:55:47.162Z,1.33
2023-04-14T02:58:31.190Z,1.30
2023-04-14T03:01:17.244Z,1.57
2023-04-14T03:03:54.274Z,1.30
2023-04-14T03:07:00.732Z,1.42
2023-04-14T03:09:50.124Z,1.20
2023-04-14T03:15:36.285Z,1.07
2023-04-14T03:21:28.860Z,1.17
2023-04-14T03:36:15.386Z,1.30
2023-04-14T03:38:58.992Z,1.73
2023-04-14T03:41:39.564Z,1.40
2023-04-14T03:44:29.847Z,1.20
2023-04-14T03:50:05.048Z,1.47
2023-04-14T03:53:11.772Z,1.55
2023-04-14T03:55:53.037Z,1.38
2023-04-14T03:58:32.315Z,1.75
2023-04-14T04:01:17.323Z,1.30
2023-04-14T04:03:57.970Z,1.75
2023-04-14T04:06:36.078Z,1.80
2023-04-14T04:09:12.829Z,1.63
2023-04-14T04:11:51.394Z,1.70
2023-04-14T04:14:26.402Z,1.30
2023-04-14T04:17:06.291Z,2.50
2023-04-14T04:19:41.790Z,2.20
2023-04-14T04:22:20.008Z,2.42
2023-04-14T04:24:55.689Z,1.55
2023-04-14T04:27:31.775Z,2.00
2023-04-14T04:30:06.709Z,1.73
2023-04-14T04:32:42.316Z,2.70
2023-04-14T04:35:17.255Z,2.42
2023-04-14T04:37:56.673Z,2.83
2023-04-14T04:40:32.968Z,3.00
2023-04-14T04:43:09.063Z,3.28
2023-04-14T04:45:45.441Z,2.90
2023-04-14T04:48:23.136Z,2.42
2023-04-14T04:50:57.360Z,3.10
2023-04-14T04:53:34.626Z,2.80
2023-04-14T04:56:10.353Z,3.17
2023-04-14T04:58:47.091Z,2.67
2023-04-14T05:01:23.096Z,2.70
2023-04-14T05:04:58.009Z,2.60
2023-04-14T05:10:47.737Z,3.15
2023-04-14T05:13:29.674Z,3.45
2023-04-14T05:16:16.298Z,2.50
2023-04-14T05:19:05.260Z,4.88
2023-04-14T05:21:41.273Z,3.10
2023-04-14T05:24:26.240Z,3.27
2023-04-14T05:27:13.817Z,3.15
2023-04-14T05:29:52.029Z,2.53
2023-04-14T05:32:37.880Z,2.75
2023-04-14T05:35:18.170Z,3.20
2023-04-14T05:41:09.701Z,3.03
2023-04-14T05:43:48.076Z,2.85
2023-04-14T05:46:23.624Z,3.80
2023-04-14T05:51:44.051Z,4.32
2023-04-14T05:54:25.926Z,3.03
2023-04-14T05:57:13.220Z,2.70
2023-04-14T05:59:48.441Z,3.30
2023-04-14T06:02:25.835Z,3.90
2023-04-14T06:05:00.722Z,3.67
2023-04-14T06:07:46.222Z,3.15
2023-04-14T06:13:12.030Z,3.83
2023-04-14T07:29:36.431Z,3.00
2023-04-14T07:32:14.027Z,2.75
2023-04-14T07:34:51.655Z,3.20
2023-04-14T07:37:25.951Z,2.50
2023-04-14T07:40:02.406Z,2.30
2023-04-14T07:42:37.293Z,2.60
2023-04-14T07:45:11.642Z,2.77
2023-04-14T07:47:48.951Z,2.63
2023-04-14T07:50:24.928Z,2.30
2023-04-14T07:53:01.072Z,2.70
2023-04-14T07:55:35.782Z,1.70
2023-04-14T07:58:15.259Z,2.60
2023-04-14T08:00:51.738Z,2.45
2023-04-14T08:03:26.326Z,2.23
2023-04-14T08:06:02.491Z,2.47
2023-04-14T08:08:40.457Z,2.35
2023-04-14T08:11:15.593Z,2.75
2023-04-14T08:13:52.719Z,2.83
2023-04-14T08:16:27.495Z,2.28
2023-04-14T08:19:01.705Z,2.60
2023-04-14T08:21:36.425Z,2.72
2023-04-14T08:24:10.780Z,2.70
2023-04-14T08:26:53.944Z,2.30
2023-04-14T08:29:29.894Z,2.65
2023-04-14T08:32:10.778Z,3.15
2023-04-14T08:35:38.313Z,2.53
2023-04-14T08:37:53.158Z,2.47
2023-04-14T08:43:24.893Z,2.70
2023-04-14T08:46:02.210Z,3.10
2023-04-14T08:48:38.230Z,2.80
2023-04-14T08:51:16.913Z,3.13
2023-04-14T08:53:56.330Z,2.57
2023-04-14T08:56:32.609Z,1.95
2023-04-14T08:59:13.414Z,2.20
2023-04-14T09:01:48.161Z,2.50
2023-04-14T09:04:26.266Z,2.30
2023-04-14T09:09:55.631Z,1.95
2023-04-14T09:12:36.729Z,2.20
2023-04-14T09:15:09.884Z,2.50
2023-04-14T09:17:45.565Z,2.20
2023-04-14T09:20:36.241Z,2.20
2023-04-14T09:23:01.923Z,1.70
2023-04-14T09:28:37.390Z,1.77
2023-04-14T09:31:11.482Z,1.58
2023-04-14T09:33:53.792Z,1.75
2023-04-14T09:36:29.883Z,2.35
2023-04-14T09:39:04.198Z,2.20
2023-04-14T09:41:48.001Z,1.95
2023-04-14T09:44:22.117Z,1.90
2023-04-14T09:47:13.019Z,1.65
2023-04-14T09:49:47.745Z,1.70
2023-04-14T09:52:22.795Z,1.60
2023-04-14T09:54:57.113Z,1.77
2023-04-14T09:57:37.130Z,1.80
2023-04-14T10:00:21.845Z,1.60
2023-04-14T10:03:20.411Z,2.00
2023-04-14T10:11:46.726Z,1.80
2023-04-14T10:14:21.159Z,1.70
2023-04-14T10:17:16.145Z,1.75
2023-04-14T10:19:51.238Z,1.92
2023-04-14T10:22:27.927Z,1.97
2023-04-14T10:25:03.037Z,2.20
2023-04-14T10:27:38.233Z,1.67
2023-04-14T10:30:14.489Z,1.90
2023-04-14T10:32:51.800Z,1.97
2023-04-14T10:35:28.663Z,2.08
2023-04-14T10:38:07.077Z,2.17
2023-04-14T10:40:49.018Z,2.13
2023-04-14T10:43:23.225Z,2.05
2023-04-14T10:45:59.845Z,2.00
2023-04-14T10:51:21.394Z,1.60
2023-04-14T10:53:57.596Z,1.92
2023-04-14T10:59:17.782Z,1.80
2023-04-14T11:01:55.256Z,2.40
2023-04-14T11:04:32.231Z,2.15
2023-04-14T11:07:06.754Z,2.03
2023-04-14T11:10:02.668Z,1.90
2023-04-14T11:12:36.423Z,2.00
2023-04-14T11:15:12.201Z,1.40
2023-04-14T11:17:46.750Z,1.35
2023-04-14T11:20:20.271Z,1.38
2023-04-14T11:22:55.018Z,1.85
2023-04-14T11:25:24.847Z,1.50
2023-04-14T11:27:53.353Z,1.67
2023-04-14T11:30:23.008Z,2.10
2023-04-14T11:32:56.993Z,1.63
2023-04-14T11:35:31.554Z,1.90
2023-04-14T11:38:10.434Z,1.80
2023-04-14T11:40:47.848Z,1.60
2023-04-14T11:43:26.373Z,1.40
2023-04-14T11:46:06.111Z,1.60
2023-04-14T11:48:44.372Z,1.70
2023-04-14T11:51:11.530Z,1.85
2023-04-14T11:53:55.557Z,1.57
2023-04-14T11:56:25.009Z,1.92
2023-04-14T11:58:58.198Z,1.83
2023-04-14T12:06:47.152Z,1.65
2023-04-14T12:09:14.575Z,2.38
2023-04-14T12:11:42.090Z,1.77
2023-04-14T12:14:09.962Z,1.75
2023-04-14T12:16:38.284Z,1.58
2023-04-14T12:19:23.108Z,1.52
2023-04-14T12:22:01.023Z,1.37
2023-04-14T12:24:40.260Z,1.40
2023-04-14T12:27:15.395Z,1.50
2023-04-14T12:29:51.719Z,1.55
2023-04-14T12:35:24.226Z,1.80
2023-04-14T12:37:57.202Z,1.60
2023-04-14T12:40:52.779Z,1.63
2023-04-14T12:43:29.897Z,1.13
2023-04-14T12:46:06.774Z,1.50
2023-04-14T12:48:45.938Z,1.20
2023-04-14T12:57:45.022Z,1.15
2023-04-14T13:00:20.367Z,1.50
2023-04-14T13:02:57.036Z,1.30
2023-04-14T13:05:32.178Z,1.13
2023-04-14T13:08:08.708Z,1.30
2023-04-14T13:10:42.269Z,1.30
2023-04-14T13:13:20.893Z,1.27
2023-04-14T13:16:21.140Z,1.60
2023-04-14T13:18:50.221Z,1.30
2023-04-14T13:21:25.359Z,1.60
2023-04-14T13:24:00.622Z,1.60
2023-04-14T13:26:35.317Z,1.85
2023-04-14T13:29:13.648Z,1.30
2023-04-14T13:31:48.329Z,1.35
2023-04-14T13:34:28.843Z,1.40
2023-04-14T13:37:15.050Z,1.48
2023-04-14T13:39:50.369Z,1.40
2023-04-14T13:42:25.721Z,1.25
2023-04-14T13:45:01.145Z,1.45
2023-04-14T13:47:35.151Z,1.43
2023-04-14T13:55:21.476Z,1.50
2023-04-14T13:57:55.314Z,1.20
2023-04-14T14:00:29.969Z,1.20
2023-04-14T14:03:04.419Z,1.67
2023-04-14T14:06:00.947Z,1.60
2023-04-14T14:08:38.249Z,1.10
2023-04-14T14:11:12.927Z,1.30
2023-04-14T14:13:40.482Z,1.85
2023-04-14T14:16:20.229Z,1.30
2023-04-14T14:19:07.569Z,1.27
2023-04-14T14:21:43.652Z,1.30
2023-04-14T14:24:18.139Z,0.95
2023-04-14T14:26:52.719Z,0.90
2023-04-14T14:29:28.313Z,1.15
2023-04-14T14:32:03.224Z,1.33
2023-04-14T14:34:39.410Z,1.30
2023-04-14T14:37:15.961Z,1.60
2023-04-14T14:42:23.999Z,1.20
2023-04-14T14:45:00.994Z,0.80
2023-04-14T14:47:35.222Z,0.90
2023-04-14T14:52:44.122Z,1.27
2023-04-14T14:55:18.767Z,1.20
2023-04-14T14:57:53.680Z,1.10
2023-04-14T15:00:28.118Z,1.00
2023-04-14T15:02:56.324Z,1.25
2023-04-14T15:05:23.725Z,1.23
2023-04-14T15:07:58.658Z,1.10
2023-04-14T15:10:32.061Z,1.42
2023-04-14T15:13:03.558Z,1.50
2023-04-14T15:15:38.891Z,1.10
2023-04-14T15:18:13.741Z,1.00
2023-04-14T15:20:48.289Z,1.13
2023-04-14T15:23:23.318Z,1.20
2023-04-14T15:25:57.779Z,1.00
2023-04-14T15:28:25.249Z,1.27
2023-04-14T15:30:54.584Z,1.75
2023-04-14T15:33:30.152Z,1.70
2023-04-14T15:36:05.030Z,1.20
2023-04-14T15:38:40.875Z,1.10
2023-04-14T15:41:16.295Z,1.20
2023-04-14T15:43:50.369Z,1.00
2023-04-14T15:48:59.042Z,0.95
2023-04-14T15:51:40.229Z,0.95
2023-04-14T15:54:14.916Z,1.40
2023-04-14T15:57:11.871Z,1.33
2023-04-14T15:59:46.379Z,1.10
2023-04-14T16:02:24.326Z,1.20
2023-04-14T16:05:00.320Z,1.10
2023-04-14T16:07:50.828Z,1.10
2023-04-14T16:10:24.225Z,1.00
2023-04-14T16:13:27.669Z,1.10
2023-04-14T16:16:03.708Z,1.17
2023-04-14T16:18:48.559Z,1.30
2023-04-14T16:21:23.187Z,1.50
2023-04-14T17:22:32.640Z,1.48
2023-04-14T17:25:09.664Z,2.15
2023-04-14T17:27:45.926Z,1.60
2023-04-14T17:30:21.190Z,1.45
2023-04-14T17:32:57.822Z,1.90
2023-04-14T17:35:32.555Z,1.83
2023-04-14T17:38:11.689Z,1.50
2023-04-14T17:40:46.450Z,1.40
2023-04-14T17:43:22.735Z,1.58
2023-04-14T17:45:58.419Z,1.95
2023-04-14T17:48:34.452Z,1.65
2023-04-14T17:51:10.930Z,3.20
2023-04-14T17:53:48.732Z,2.30
2023-04-14T17:56:27.643Z,2.28
2023-04-14T17:59:03.471Z,2.25
2023-04-14T18:01:42.475Z,2.30
2023-04-14T18:04:20.637Z,2.65
2023-04-14T18:06:56.950Z,2.10
2023-04-14T18:09:35.101Z,2.60
2023-04-14T18:12:16.163Z,2.17
2023-04-14T18:14:58.419Z,2.20
2023-04-14T18:17:36.498Z,2.13
2023-04-14T18:20:11.320Z,2.20
2023-04-14T18:22:49.096Z,2.38
2023-04-14T18:28:22.659Z,2.05
2023-04-14T18:31:03.107Z,1.83
2023-04-14T18:33:39.130Z,2.03
2023-04-14T18:36:14.185Z,2.10
2023-04-14T18:38:49.691Z,1.50
2023-04-14T18:41:23.289Z,2.00
2023-04-14T18:44:04.866Z,1.95
2023-04-14T18:46:43.308Z,1.97
2023-04-14T18:49:19.492Z,1.90
2023-04-14T18:51:56.948Z,2.20
2023-04-14T18:54:32.773Z,2.37
2023-04-14T18:57:08.248Z,2.25
2023-04-14T18:59:47.930Z,2.40
2023-04-14T19:02:26.467Z,2.38
2023-04-14T19:05:05.191Z,2.63
2023-04-14T19:07:41.167Z,2.05
2023-04-14T19:10:16.539Z,2.00
2023-04-14T19:12:52.270Z,2.10
2023-04-14T19:18:03.454Z,2.27
2023-04-14T19:20:41.947Z,2.83
2023-04-14T19:23:19.130Z,3.45
2023-04-14T19:25:54.856Z,3.87
2023-04-14T19:28:34.540Z,3.20
2023-04-14T19:31:09.903Z,2.70
2023-04-14T19:33:46.340Z,1.98
2023-04-14T19:36:22.169Z,2.50
2023-04-14T19:38:57.577Z,2.40
2023-04-14T19:44:27.421Z,2.33
2023-04-14T19:47:05.721Z,1.95
2023-04-14T19:49:40.386Z,1.98
2023-04-14T19:52:08.931Z,2.25
2023-04-14T19:54:43.415Z,2.10
2023-04-14T19:57:18.425Z,2.00
2023-04-14T19:59:54.847Z,2.13
2023-04-14T20:02:30.798Z,2.17
2023-04-14T20:05:05.041Z,2.05
2023-04-14T20:07:40.916Z,2.08
2023-04-14T20:10:14.570Z,2.00
2023-04-14T20:12:51.965Z,2.13
2023-04-14T20:15:27.371Z,1.98
2023-04-14T20:18:03.598Z,2.15
2023-04-14T20:20:40.512Z,2.40
2023-04-14T20:23:16.042Z,2.45
2023-04-14T20:25:51.374Z,2.70
2023-04-14T20:28:27.315Z,2.00
2023-04-14T20:31:03.653Z,2.10
2023-04-14T20:33:39.260Z,2.40
2023-04-14T20:36:14.406Z,2.45
2023-04-14T20:38:48.573Z,2.08
2023-04-14T20:41:22.360Z,2.08
2023-04-14T20:44:00.793Z,2.17
2023-04-14T20:46:34.398Z,2.47
2023-04-14T20:49:10.310Z,2.45
2023-04-14T20:51:46.967Z,2.03
2023-04-14T20:54:24.241Z,2.10
2023-04-14T20:57:00.135Z,1.90
2023-04-14T20:59:36.170Z,2.10
2023-04-14T21:02:13.263Z,2.13
2023-04-14T21:04:49.306Z,2.03
2023-04-14T21:07:25.336Z,2.35
2023-04-14T21:09:59.527Z,2.53
2023-04-14T21:12:36.310Z,2.40
2023-04-14T21:15:51.979Z,2.40
2023-04-14T21:18:25.447Z,2.00
2023-04-14T21:21:00.656Z,2.40
2023-04-14T21:23:36.493Z,2.33
2023-04-14T21:26:11.649Z,2.38
2023-04-14T21:28:47.802Z,2.50
2023-04-14T21:31:23.458Z,2.30
2023-04-14T21:33:58.643Z,2.00
2023-04-14T21:36:35.028Z,2.05
2023-04-14T21:39:10.267Z,2.38
2023-04-14T21:41:46.358Z,2.50
2023-04-14T21:44:22.866Z,2.05
2023-04-14T21:46:58.322Z,2.22
2023-04-14T21:49:33.432Z,2.50
2023-04-14T21:52:10.222Z,2.33
2023-04-14T21:54:46.774Z,2.35
2023-04-14T21:57:48.121Z,1.90
2023-04-14T22:00:18.568Z,2.40
2023-04-14T22:02:54.456Z,2.20
2023-04-14T22:05:29.503Z,1.90
2023-04-14T22:08:05.579Z,1.70
2023-04-14T22:10:44.030Z,2.40
2023-04-14T22:13:19.534Z,2.20
2023-04-14T22:15:55.535Z,2.30
2023-04-14T22:18:32.104Z,2.42
2023-04-14T22:21:11.092Z,2.78
2023-04-14T22:23:47.172Z,2.90
2023-04-14T22:26:23.998Z,3.15
2023-04-14T22:29:00.302Z,3.40
2023-04-14T22:31:36.600Z,3.45
2023-04-14T22:34:12.910Z,3.05
2023-04-14T22:36:49.304Z,3.25
2023-04-14T22:39:24.526Z,2.60
2023-04-14T22:41:58.748Z,2.65
2023-04-14T22:44:33.343Z,2.30
2023-04-14T22:47:09.405Z,2.67
2023-04-14T22:49:46.110Z,2.83
2023-04-14T22:52:24.263Z,3.00
2023-04-14T22:55:00.410Z,2.75
2023-04-14T22:57:35.456Z,2.95
2023-04-14T23:00:12.925Z,3.70
2023-04-14T23:02:48.597Z,2.70
2023-04-14T23:05:24.561Z,2.75
2023-04-14T23:07:59.616Z,2.80
2023-04-14T23:10:35.399Z,3.22
2023-04-14T23:13:10.418Z,2.63
2023-04-14T23:15:46.455Z,2.90
2023-04-14T23:18:20.512Z,2.88
2023-04-14T23:20:57.249Z,2.45
2023-04-14T23:23:32.465Z,3.28
2023-04-14T23:26:08.464Z,3.10
2023-04-14T23:28:43.433Z,3.10
2023-04-14T23:31:19.484Z,2.60
2023-04-14T23:33:55.677Z,2.67
2023-04-14T23:36:31.331Z,2.90
2023-04-14T23:39:07.381Z,2.97
2023-04-14T23:41:43.172Z,2.83
2023-04-14T23:44:19.587Z,3.07
2023-04-14T23:46:54.424Z,2.60
2023-04-14T23:49:34.115Z,2.80
2023-04-14T23:52:12.385Z,3.05
2023-04-14T23:54:46.464Z,3.00
2023-04-14T23:57:22.786Z,2.90
2023-04-14T23:59:57.530Z,3.08
